アディスアベバ の空港の天気 - METARとTAF

ボレ国際空港(アディスアベバ) ( HAAB / ADD ) - エチオピア アディスアベバ
飛行場実況気象(Metar)
観測時間04/21 18:00 EAT (04/21 15:00 UTC)
風向・風速南南東 3m/s
視程8000m
天気現象
少しの雲 雲底高度 610m
全天の8割程度の雲 雲底高度 760m
気温18℃
湿度73%
気圧1022hPa
METARHAAB 211500Z 16006KT 8000M RA FEW020 CB BKN025 18/13 Q1022
過去の天気等 Google飛行場航空写真 Wunderground天気予報

過去48時間のMETAR

飛行場予報(TAF)
発表時間: 4/21 06:30 EAT (4/21 03:30 UTC)
予報対象時間: 21日7時 EAT ~ 22日13時 EAT
風向・風速北北東 4m/s
視程10km以上
全天の8割程度の雲 雲底高度 1220m
全天の4割程度の雲 雲底高度 2440m
21日15時 EAT ~ 21日19時 EAT に徐々に
風向・風速東南東 5m/s
視程9000m
天気現象弱いしゅう雨
全天の8割程度の雲 雲底高度 910m
全天の8割程度の雲 雲底高度 2440m
TAF HAAB 210330Z 2104/2210 03008KT 9999 BKN040 SCT080
BECMG 2112/2116 12010KT 9000 -SHRA BKN030 BKN080